Time;durP1;ratioP1;P1;durP2;ratioP2;P2;SDS_P1;SDS_P2;PMS_P1;PMS_P2;Temp;Humidity;BMP_temperature;BMP_pressure;BME280_temperature;BME280_humidity;BME280_pressure;Samples;Min_cycle;Max_cycle;Signal;HPM_P1;HPM_P2
2021/11/20 00:00:37;;;;;;;0.73;0.40;;;;;;;8.95;90.62;99200.67;1650893;85;21017;-64
2021/11/20 00:03:04;;;;;;;0.50;0.50;;;;;;;8.99;90.70;99181.14;1697881;83;21130;-64
2021/11/20 00:05:36;;;;;;;2.57;0.53;;;;;;;9.02;90.71;99199.31;1682475;83;21016;-65
2021/11/20 00:08:06;;;;;;;0.60;0.50;;;;;;;9.05;90.82;99191.47;1672600;83;21630;-64
2021/11/20 00:10:36;;;;;;;4.17;0.87;;;;;;;9.12;90.90;99186.96;1646341;85;21004;-64
2021/11/20 00:13:08;;;;;;;1.17;0.70;;;;;;;9.16;90.67;99172.23;1595652;85;21038;-65
2021/11/20 00:15:37;;;;;;;0.60;0.60;;;;;;;9.15;90.45;99163.94;1650240;85;21133;-63
2021/11/20 00:18:05;;;;;;;2.03;0.50;;;;;;;9.10;90.84;99173.88;1647173;86;21021;-64
2021/11/20 00:20:35;;;;;;;0.70;0.70;;;;;;;9.12;90.86;99178.47;1654644;85;21499;-64
2021/11/20 00:23:03;;;;;;;0.73;0.40;;;;;;;9.16;90.59;99158.41;1628450;86;21112;-65
2021/11/20 00:25:44;;;;;;;1.00;0.87;;;;;;;9.22;90.70;99150.64;1646026;85;21037;-65
2021/11/20 00:28:07;;;;;;;0.47;0.47;;;;;;;9.26;90.55;99152.66;1649238;85;21073;-65
2021/11/20 00:30:51;;;;;;;0.70;0.60;;;;;;;9.29;90.45;99154.91;1649732;85;21179;-65
2021/11/20 00:33:11;;;;;;;0.67;0.60;;;;;;;9.35;90.42;99147.94;1611057;86;21064;-65
2021/11/20 00:35:42;;;;;;;1.67;0.90;;;;;;;9.37;90.22;99139.75;1662778;84;21007;-65
2021/11/20 00:38:12;;;;;;;1.63;1.13;;;;;;;9.38;90.24;99138.22;1670214;84;21033;-64
2021/11/20 00:40:47;;;;;;;0.90;0.77;;;;;;;9.43;90.35;99133.06;1665638;85;21568;-65
2021/11/20 00:43:16;;;;;;;0.93;0.93;;;;;;;9.50;90.25;99121.09;1652734;84;21021;-64
2021/11/20 00:45:44;;;;;;;1.03;0.70;;;;;;;9.53;90.07;99117.49;1659371;84;21129;-65
2021/11/20 00:48:13;;;;;;;2.50;0.90;;;;;;;9.58;89.87;99110.72;1655096;84;21082;-64
2021/11/20 00:50:44;;;;;;;2.97;0.60;;;;;;;9.62;89.95;99111.92;1668928;84;21007;-65
2021/11/20 00:53:11;;;;;;;2.43;0.90;;;;;;;9.66;89.99;99110.46;1662922;84;21113;-65
2021/11/20 00:55:38;;;;;;;0.97;0.93;;;;;;;9.72;89.88;99105.64;1667863;82;21086;-66
2021/11/20 00:58:07;;;;;;;1.00;1.00;;;;;;;9.75;89.60;99098.02;1665792;84;21592;-65
2021/11/20 01:00:39;;;;;;;2.03;1.07;;;;;;;9.77;89.38;99091.69;1641424;85;21066;-65
2021/11/20 01:03:07;;;;;;;2.80;1.40;;;;;;;9.80;89.40;99089.42;1680414;83;21075;-66
2021/11/20 01:05:35;;;;;;;2.30;1.27;;;;;;;9.84;89.46;99078.64;1692111;83;21079;-66
2021/11/20 01:08:06;;;;;;;1.63;1.43;;;;;;;9.90;89.44;99078.30;1682079;83;21163;-65
2021/11/20 01:10:38;;;;;;;1.57;1.47;;;;;;;9.94;89.27;99081.66;1686192;84;21065;-64
2021/11/20 01:13:06;;;;;;;1.60;1.50;;;;;;;9.96;89.04;99069.45;1672973;83;21559;-62
2021/11/20 01:15:41;;;;;;;1.67;1.57;;;;;;;9.91;89.05;99059.45;1668051;85;21008;-64
2021/11/20 01:18:12;;;;;;;2.60;2.40;;;;;;;9.92;89.28;99063.73;1693971;84;21008;-64
2021/11/20 01:20:42;;;;;;;1.77;1.67;;;;;;;10.01;89.15;99055.51;1657371;85;21042;-66
2021/11/20 01:23:10;;;;;;;2.10;1.30;;;;;;;10.05;88.89;99046.05;1676800;84;21089;-67
2021/11/20 01:25:38;;;;;;;2.13;1.80;;;;;;;10.07;88.86;99031.48;1630466;86;21131;-65
2021/11/20 01:28:08;;;;;;;1.97;1.87;;;;;;;10.11;88.83;99027.88;1668653;84;21519;-65
2021/11/20 01:30:37;;;;;;;5.27;2.37;;;;;;;10.12;88.83;99027.66;1663512;84;21053;-66
2021/11/20 01:33:04;;;;;;;2.27;2.17;;;;;;;10.10;88.96;99024.40;1672332;84;21003;-64
2021/11/20 01:35:33;;;;;;;2.00;1.90;;;;;;;10.08;89.03;99024.33;1702009;83;21960;-64
2021/11/20 01:38:03;;;;;;;2.13;2.03;;;;;;;10.08;88.85;99020.34;1697017;83;21026;-64
2021/11/20 01:40:35;;;;;;;2.20;2.00;;;;;;;10.09;88.61;99013.44;1696707;83;21630;-64
2021/11/20 01:43:04;;;;;;;2.83;2.63;;;;;;;10.08;88.79;99003.03;1693129;83;21548;-64
2021/11/20 01:45:37;;;;;;;2.23;2.13;;;;;;;10.11;89.06;98999.42;1699453;83;21048;-66
2021/11/20 01:48:32;;;;;;;1.70;1.60;;;;;;;10.19;89.23;98997.48;1649750;85;21115;-66
2021/11/20 01:52:59;;;;;;;3.42;2.37;;;;;;;10.32;88.94;98986.25;1790386;78;23411;-66
2021/11/20 01:56:06;;;;;;;2.90;2.37;;;;;;;10.29;88.95;98988.50;1653790;83;21618;-65
2021/11/20 01:58:55;;;;;;;3.33;2.57;;;;;;;10.26;89.06;98973.76;1617152;87;21005;-64
2021/11/20 02:01:49;;;;;;;3.23;2.30;;;;;;;10.26;89.08;98967.09;1586057;87;21209;-65
2021/11/20 02:04:49;;;;;;;2.27;2.00;;;;;;;10.31;88.89;98968.62;1611296;87;22008;-67
2021/11/20 02:07:40;;;;;;;2.00;1.90;;;;;;;10.32;88.93;98961.44;1613728;87;21136;-66
2021/11/20 02:10:26;;;;;;;2.07;1.97;;;;;;;10.34;88.98;98956.73;1626544;86;21010;-64
2021/11/20 02:13:08;;;;;;;4.67;2.50;;;;;;;10.36;88.96;98951.17;1634321;86;21569;-67
2021/11/20 02:15:58;;;;;;;1.60;1.50;;;;;;;10.41;88.98;98937.48;1649582;85;21078;-64
2021/11/20 02:18:29;;;;;;;2.00;1.40;;;;;;;10.48;88.98;98945.41;1641262;86;21608;-65
2021/11/20 02:21:10;;;;;;;1.70;1.60;;;;;;;10.54;88.87;98943.19;1649819;85;21529;-65
2021/11/20 02:23:44;;;;;;;1.47;1.37;;;;;;;10.62;88.64;98948.73;1656938;84;21034;-64
2021/11/20 02:26:10;;;;;;;2.67;1.35;;;;;;;10.61;88.47;98936.47;1665258;84;21578;-65
2021/11/20 02:28:46;;;;;;;1.47;1.33;;;;;;;10.60;88.50;98939.63;1663516;84;21051;-66
2021/11/20 02:31:22;;;;;;;2.45;2.25;;;;;;;10.60;88.51;98937.48;1655849;84;21107;-65
2021/11/20 02:33:51;;;;;;;2.30;2.20;;;;;;;10.61;88.65;98932.47;1664604;84;21113;-66
2021/11/20 02:36:22;;;;;;;2.37;1.37;;;;;;;10.63;88.61;98932.53;1641830;86;21009;-65
2021/11/20 02:39:07;;;;;;;5.00;2.00;;;;;;;10.65;88.63;98917.13;1655964;85;21526;-64
2021/11/20 02:41:38;;;;;;;3.53;3.23;;;;;;;10.68;88.55;98915.36;1651921;84;21077;-65
2021/11/20 02:44:08;;;;;;;2.60;2.03;;;;;;;10.73;88.63;98911.20;1658941;85;21130;-65
2021/11/20 02:46:39;;;;;;;2.27;2.10;;;;;;;10.76;88.25;98904.91;1639570;85;21018;-64
2021/11/20 02:49:08;;;;;;;2.15;1.80;;;;;;;10.80;88.15;98907.42;1645853;85;21140;-64
2021/11/20 02:51:39;;;;;;;2.43;1.73;;;;;;;10.84;88.04;98899.26;1624593;86;21058;-64
2021/11/20 02:54:17;;;;;;;0.90;0.90;;;;;;;10.88;87.69;98901.77;1682888;83;21060;-66
2021/11/20 02:56:54;;;;;;;0.93;0.93;;;;;;;10.90;87.52;98904.21;1689221;83;21140;-64
2021/11/20 02:59:22;;;;;;;1.00;0.90;;;;;;;10.89;87.37;98897.27;1668618;83;21170;-65
2021/11/20 03:01:50;;;;;;;2.00;1.20;;;;;;;10.92;87.35;98894.13;1675361;83;21025;-66
2021/11/20 03:04:21;;;;;;;2.07;1.00;;;;;;;10.95;87.29;98897.69;1674677;83;21139;-68
2021/11/20 03:06:51;;;;;;;1.17;1.07;;;;;;;10.99;87.12;98897.53;1679859;83;20981;-65
2021/11/20 03:09:22;;;;;;;1.77;0.93;;;;;;;11.04;86.94;98889.67;1672154;83;21116;-66
2021/11/20 03:11:49;;;;;;;0.80;0.65;;;;;;;11.10;86.94;98887.95;1674550;83;21053;-65
2021/11/20 03:14:17;;;;;;;1.30;0.85;;;;;;;11.12;86.40;98877.87;1678558;83;21096;-65
2021/11/20 03:16:54;;;;;;;0.93;0.63;;;;;;;11.14;86.25;98864.31;1619242;86;21006;-67
2021/11/20 03:19:23;;;;;;;2.72;1.12;;;;;;;11.17;85.99;98873.17;1645115;85;21524;-66
2021/11/20 03:22:00;;;;;;;1.47;0.90;;;;;;;11.23;85.91;98883.75;1623573;86;21505;-65
2021/11/20 03:24:29;;;;;;;2.75;0.90;;;;;;;11.28;85.67;98881.23;1679410;80;21079;-65
2021/11/20 03:26:57;;;;;;;3.52;0.50;;;;;;;11.34;85.24;98896.84;1675845;83;21072;-65
2021/11/20 03:29:25;;;;;;;1.75;1.10;;;;;;;11.35;85.20;98902.45;1677290;83;21037;-66
2021/11/20 03:31:57;;;;;;;0.80;0.80;;;;;;;11.35;85.28;98899.78;1665527;85;21067;-65
2021/11/20 03:34:26;;;;;;;1.12;0.90;;;;;;;11.38;85.33;98881.99;1685864;82;21052;-65
2021/11/20 03:36:55;;;;;;;0.72;0.50;;;;;;;11.42;85.19;98889.83;1688570;83;21053;-67
2021/11/20 03:39:23;;;;;;;1.60;0.55;;;;;;;11.47;85.14;98884.62;1683080;83;21064;-63
2021/11/20 03:41:51;;;;;;;0.88;0.50;;;;;;;11.53;84.87;98888.73;1664081;83;21098;-65
2021/11/20 03:44:18;;;;;;;0.95;0.60;;;;;;;11.56;84.56;98889.08;1679453;83;20985;-64
2021/11/20 03:46:46;;;;;;;0.40;0.40;;;;;;;11.60;84.53;98904.12;1671029;85;21042;-63
2021/11/20 03:49:14;;;;;;;0.60;0.57;;;;;;;11.61;84.76;98891.08;1679972;83;21647;-64
2021/11/20 03:51:41;;;;;;;0.30;0.20;;;;;;;11.60;84.94;98896.95;1647828;85;21133;-65
2021/11/20 03:54:10;;;;;;;0.62;0.20;;;;;;;11.57;85.34;98893.92;1668813;83;21059;-65
2021/11/20 03:56:38;;;;;;;0.35;0.30;;;;;;;11.53;85.59;98892.73;1670527;83;21028;-65
2021/11/20 03:59:06;;;;;;;0.20;0.20;;;;;;;11.47;85.93;98884.62;1674614;83;21475;-65
2021/11/20 04:01:34;;;;;;;1.95;0.30;;;;;;;11.42;86.30;98889.83;1673810;84;21514;-65
2021/11/20 04:04:02;;;;;;;1.22;0.40;;;;;;;11.38;86.64;98893.20;1671445;84;21090;-67
2021/11/20 04:06:31;;;;;;;0.40;0.30;;;;;;;11.34;87.03;98890.17;1666612;84;21534;-64
2021/11/20 04:08:59;;;;;;;2.05;0.60;;;;;;;11.30;87.35;98881.80;1662728;84;21618;-64
2021/11/20 04:11:31;;;;;;;0.75;0.30;;;;;;;11.26;87.56;98889.98;1662342;84;21063;-66
2021/11/20 04:13:59;;;;;;;0.28;0.28;;;;;;;11.20;87.90;98884.73;1664765;84;21566;-65
2021/11/20 04:16:29;;;;;;;0.80;0.50;;;;;;;11.17;88.03;98878.00;1662541;84;21063;-66
2021/11/20 04:18:59;;;;;;;0.62;0.40;;;;;;;11.16;88.11;98880.89;1649179;85;21028;-66
2021/11/20 04:21:27;;;;;;;0.42;0.40;;;;;;;11.15;88.02;98880.59;1662767;84;21097;-67
2021/11/20 04:23:56;;;;;;;1.85;0.90;;;;;;;11.17;88.03;98881.17;1663361;82;21538;-65
2021/11/20 04:26:43;;;;;;;2.05;0.60;;;;;;;11.19;87.89;98874.59;1667056;84;21155;-65
2021/11/20 04:29:09;;;;;;;1.80;0.85;;;;;;;11.24;87.52;98896.56;1668631;84;21054;-66
2021/11/20 04:31:38;;;;;;;4.12;0.80;;;;;;;11.25;87.09;98887.53;1661128;84;21075;-66
2021/11/20 04:34:07;;;;;;;1.42;0.82;;;;;;;11.26;86.82;98891.31;1654821;81;21087;-65
2021/11/20 04:36:34;;;;;;;1.55;0.70;;;;;;;11.26;86.38;98889.98;1665709;84;21123;-65
2021/11/20 04:39:03;;;;;;;1.72;1.02;;;;;;;11.26;86.31;98899.31;1661487;84;21036;-65
2021/11/20 04:41:30;;;;;;;1.70;1.10;;;;;;;11.28;86.15;98886.56;1663483;84;21023;-64
2021/11/20 04:43:57;;;;;;;0.85;0.85;;;;;;;11.30;85.83;98894.31;1652919;84;21000;-64
2021/11/20 04:46:24;;;;;;;;;;;;;;;11.32;85.56;98894.92;1636675;83;21061;-67
2021/11/20 04:48:51;;;;;;;;;;;;;;;11.35;85.23;98901.11;1627756;86;20227;-64
2021/11/20 04:51:20;;;;;;;3.40;1.27;;;;;;;11.35;85.16;98911.78;1617679;86;20122;-65
2021/11/20 04:53:47;;;;;;;1.10;1.00;;;;;;;11.33;84.75;98897.06;1640873;86;21081;-64
2021/11/20 04:56:17;;;;;;;1.17;0.70;;;;;;;11.30;84.21;98903.64;1627386;85;21047;-64
2021/11/20 04:58:45;;;;;;;2.23;1.23;;;;;;;11.28;84.14;98907.06;1680423;83;21135;-69
2021/11/20 05:01:13;;;;;;;2.20;1.12;;;;;;;11.31;84.15;98893.28;1672305;83;21006;-65
2021/11/20 05:03:43;;;;;;;1.12;1.02;;;;;;;11.34;83.86;98898.67;1691417;83;21089;-65
2021/11/20 05:06:10;;;;;;;3.00;0.85;;;;;;;11.34;83.28;98897.34;1696390;83;20979;-65
2021/11/20 05:08:38;;;;;;;4.12;1.47;;;;;;;11.28;82.81;98901.23;1685180;83;21038;-64
2021/11/20 05:11:07;;;;;;;1.90;1.22;;;;;;;11.29;82.71;98915.38;1684533;82;21565;-66
2021/11/20 05:13:48;;;;;;;3.37;0.85;;;;;;;11.34;82.55;98920.02;1691644;83;21229;-65
2021/11/20 05:16:15;;;;;;;2.67;0.83;;;;;;;11.38;82.15;98901.20;1693189;83;21019;-64
2021/11/20 05:18:42;;;;;;;1.30;0.60;;;;;;;11.38;81.10;98916.67;1672874;84;21070;-65
2021/11/20 05:21:10;;;;;;;3.30;0.80;;;;;;;11.38;80.86;98927.34;1687113;83;21174;-66
2021/11/20 05:23:38;;;;;;;2.10;1.10;;;;;;;11.38;80.65;98940.69;1679049;83;20967;-64
2021/11/20 05:26:09;;;;;;;3.10;1.00;;;;;;;11.34;80.21;98931.52;1683877;83;21069;-64
2021/11/20 05:28:36;;;;;;;1.95;1.02;;;;;;;11.30;79.96;98935.16;1684064;83;20978;-63
2021/11/20 05:31:05;;;;;;;1.37;0.42;;;;;;;11.34;79.83;98947.52;1665608;83;21042;-65
2021/11/20 05:33:41;;;;;;;0.93;0.40;;;;;;;11.37;79.41;98948.91;1689837;82;21064;-65
2021/11/20 05:36:10;;;;;;;1.98;0.60;;;;;;;11.37;78.96;98948.38;1686146;82;21078;-66
2021/11/20 05:38:38;;;;;;;1.15;0.47;;;;;;;11.37;79.20;98961.72;1690428;82;21074;-65
2021/11/20 05:41:06;;;;;;;1.50;0.50;;;;;;;11.35;79.32;98953.13;1698788;82;21022;-64
2021/11/20 05:43:37;;;;;;;1.55;0.45;;;;;;;11.31;79.44;98947.97;1706937;82;20993;-64
2021/11/20 05:46:11;;;;;;;3.22;0.95;;;;;;;11.27;79.46;98948.94;1712891;82;21058;-65
2021/11/20 05:48:38;;;;;;;0.70;0.70;;;;;;;11.25;79.46;98952.88;1693648;82;21065;-64
2021/11/20 05:51:05;;;;;;;1.82;1.17;;;;;;;11.21;79.62;98958.38;1692679;82;21070;-64
2021/11/20 05:53:33;;;;;;;1.90;0.90;;;;;;;11.20;79.66;98956.73;1698149;82;21085;-68
2021/11/20 05:56:01;;;;;;;2.33;0.83;;;;;;;11.20;79.74;98955.41;1675695;82;20994;-65
2021/11/20 05:58:30;;;;;;;2.90;1.27;;;;;;;11.21;79.79;98953.85;1645550;84;21072;-66
2021/11/20 06:01:01;;;;;;;1.05;0.70;;;;;;;11.23;79.80;98971.77;1654251;84;21264;-65
2021/11/20 06:03:29;;;;;;;2.23;1.20;;;;;;;11.22;79.78;98959.98;1664108;84;21018;-67
2021/11/20 06:05:57;;;;;;;4.62;1.47;;;;;;;11.18;79.86;98952.95;1634673;86;21089;-65
2021/11/20 06:08:25;;;;;;;3.90;1.72;;;;;;;11.17;79.80;98958.02;1665766;84;21051;-66
2021/11/20 06:10:56;;;;;;;2.20;1.27;;;;;;;11.20;79.59;98962.07;1673613;84;21555;-68
2021/11/20 06:13:25;;;;;;;7.63;1.27;;;;;;;11.24;79.31;98955.23;1635745;84;21097;-67
2021/11/20 06:15:54;;;;;;;1.95;1.47;;;;;;;11.27;79.00;98949.47;1645650;86;21031;-67
2021/11/20 06:18:21;;;;;;;3.37;2.60;;;;;;;11.28;78.91;98947.08;1704673;82;20994;-66
2021/11/20 06:20:52;;;;;;;4.22;2.58;;;;;;;11.23;79.03;98964.30;1708293;82;21109;-67
2021/11/20 06:23:19;;;;;;;5.47;2.47;;;;;;;11.24;79.07;98964.58;1699937;82;21033;-68
2021/11/20 06:25:49;;;;;;;3.70;1.82;;;;;;;11.29;78.80;98967.39;1708727;82;21536;-67
2021/11/20 06:28:15;;;;;;;;;;;;;;;11.38;78.18;98963.36;1689846;82;21072;-68
2021/11/20 06:30:43;;;;;;;;;;;;;;;11.46;77.24;98968.36;1710362;82;20140;-65
2021/11/20 06:33:11;;;;;;;3.37;1.42;;;;;;;11.47;77.35;98976.67;1699913;82;20136;-66
2021/11/20 06:35:40;;;;;;;3.57;1.80;;;;;;;11.49;77.25;98980.45;1694997;84;21002;-67
2021/11/20 06:38:11;;;;;;;3.02;1.42;;;;;;;11.53;77.18;98974.12;1705106;82;21083;-70
2021/11/20 06:40:44;;;;;;;3.37;1.62;;;;;;;11.62;76.59;98959.41;1699770;82;21011;-65
2021/11/20 06:43:15;;;;;;;4.85;1.27;;;;;;;11.61;75.18;98967.94;1701417;82;21129;-67
2021/11/20 06:45:45;;;;;;;2.33;1.37;;;;;;;11.65;75.43;98971.78;1689447;82;21012;-66
2021/11/20 06:48:14;;;;;;;6.92;1.90;;;;;;;11.72;75.33;98968.22;1691024;83;21033;-67
2021/11/20 06:50:43;;;;;;;3.00;1.10;;;;;;;11.80;74.76;98970.01;1689635;83;21555;-66
2021/11/20 06:53:29;;;;;;;3.25;1.52;;;;;;;11.84;73.92;98963.16;1650132;85;21110;-68
2021/11/20 06:56:26;;;;;;;1.30;1.00;;;;;;;11.86;73.17;98946.39;1675172;83;21141;-66
2021/11/20 07:01:38;;;;;;;2.65;0.85;;;;;;;11.90;72.23;98971.34;1696807;83;20990;-68
2021/11/20 07:04:11;;;;;;;5.65;1.98;;;;;;;11.95;72.33;98975.47;1708977;83;20997;-67
2021/11/20 07:06:48;;;;;;;2.08;0.90;;;;;;;12.08;72.15;98981.92;1715689;83;21046;-67
2021/11/20 07:09:16;;;;;;;5.12;0.98;;;;;;;12.18;71.52;98973.33;1696444;83;21129;-65
2021/11/20 07:11:43;;;;;;;2.55;1.32;;;;;;;12.18;70.30;98963.98;1700399;82;21042;-66
2021/11/20 07:14:11;;;;;;;4.17;1.75;;;;;;;12.22;70.34;98965.14;1700205;83;21303;-69
2021/11/20 07:16:38;;;;;;;3.83;1.32;;;;;;;12.29;70.48;98959.69;1711328;82;21002;-69
2021/11/20 07:19:05;;;;;;;2.50;0.98;;;;;;;12.34;69.58;98965.96;1714761;82;21093;-65
2021/11/20 07:21:35;;;;;;;2.83;1.12;;;;;;;12.37;69.92;98960.66;1712229;82;21025;-66
2021/11/20 07:24:11;;;;;;;4.20;1.32;;;;;;;12.45;68.45;98954.95;1663664;84;21014;-69
2021/11/20 07:26:38;;;;;;;4.95;2.05;;;;;;;12.50;68.59;98969.77;1653597;85;21003;-70
2021/11/20 07:29:07;;;;;;;3.30;1.85;;;;;;;12.48;67.72;98966.52;1651295;85;21048;-67
2021/11/20 07:31:37;;;;;;;6.83;1.82;;;;;;;12.48;67.91;98968.39;1651860;85;21068;-68
2021/11/20 07:34:04;;;;;;;1.98;0.80;;;;;;;12.44;67.59;98978.73;1639216;84;21185;-67
2021/11/20 07:36:36;;;;;;;3.17;1.17;;;;;;;12.41;67.38;98972.50;1676979;84;21609;-70
2021/11/20 07:39:08;;;;;;;6.80;1.40;;;;;;;12.42;67.26;98978.16;1676579;84;21032;-67
2021/11/20 07:41:34;;;;;;;3.40;1.20;;;;;;;12.45;66.16;98966.97;1668927;84;21062;-68
2021/11/20 07:44:04;;;;;;;8.68;0.90;;;;;;;12.42;65.52;98974.95;1678707;83;21036;-69
2021/11/20 07:46:36;;;;;;;3.15;1.10;;;;;;;12.37;65.70;98978.03;1628301;87;21389;-68
2021/11/20 07:49:05;;;;;;;4.47;1.60;;;;;;;12.32;65.41;98979.24;1627481;87;21065;-69
2021/11/20 07:51:36;;;;;;;6.90;1.30;;;;;;;12.33;65.24;98980.35;1627912;87;21041;-68
2021/11/20 07:54:05;;;;;;;4.10;1.20;;;;;;;12.32;64.99;98966.72;1629081;87;21041;-68
2021/11/20 07:56:35;;;;;;;4.62;1.17;;;;;;;12.29;65.17;98985.07;1643149;85;21041;-69
2021/11/20 07:59:03;;;;;;;3.77;1.27;;;;;;;12.28;65.33;99013.62;1649292;85;21584;-67
2021/11/20 08:01:29;;;;;;;4.70;1.87;;;;;;;12.27;65.35;99010.68;1669334;83;21063;-69
2021/11/20 08:03:57;;;;;;;3.35;0.82;;;;;;;12.26;64.89;99003.20;1686488;83;21099;-67
2021/11/20 08:06:35;;;;;;;2.17;0.93;;;;;;;12.25;64.44;99012.24;1677226;84;21047;-69
2021/11/20 08:09:23;;;;;;;6.00;0.78;;;;;;;12.19;63.54;98995.81;1672031;83;21063;-67
2021/11/20 08:11:59;;;;;;;2.80;1.12;;;;;;;12.15;63.31;98995.98;1685832;83;21092;-68
2021/11/20 08:14:29;;;;;;;4.40;1.60;;;;;;;12.16;63.50;99021.64;1681950;83;21024;-70
2021/11/20 08:16:57;;;;;;;3.72;0.90;;;;;;;12.21;63.45;99025.77;1687429;84;21088;-67
2021/11/20 08:19:39;;;;;;;8.18;1.05;;;;;;;12.25;63.84;99036.28;1685364;84;21040;-68
2021/11/20 08:22:11;;;;;;;3.83;1.22;;;;;;;12.31;63.12;99017.71;1667191;83;21024;-66
2021/11/20 08:24:39;;;;;;;4.03;0.93;;;;;;;12.41;62.77;99032.63;1684441;84;21072;-70
2021/11/20 08:27:09;;;;;;;5.78;1.05;;;;;;;12.47;61.55;99019.70;1687250;83;21098;-69
2021/11/20 08:29:41;;;;;;;6.47;1.05;;;;;;;12.48;61.33;99023.17;1669315;84;21518;-69
2021/11/20 08:32:09;;;;;;;2.22;0.53;;;;;;;12.51;60.80;99024.86;1672562;83;21585;-69
2021/11/20 08:34:50;;;;;;;3.15;1.20;;;;;;;12.56;60.14;99014.27;1660301;84;20993;-68
2021/11/20 08:37:35;;;;;;;5.33;1.40;;;;;;;12.64;60.32;99018.47;1676483;84;20989;-69
2021/11/20 08:40:07;;;;;;;5.45;1.25;;;;;;;12.74;59.79;99006.64;1683200;83;21437;-65
2021/11/20 08:42:36;;;;;;;7.85;1.45;;;;;;;12.82;59.68;99023.65;1683212;83;21930;-67
2021/11/20 08:45:07;;;;;;;7.08;1.65;;;;;;;12.92;59.05;99009.70;1681987;84;21024;-68
2021/11/20 08:47:37;;;;;;;5.55;1.10;;;;;;;12.97;58.30;99009.78;1682659;83;21080;-68
2021/11/20 08:50:08;;;;;;;7.03;1.42;;;;;;;12.93;57.37;99003.29;1692106;83;21080;-66
2021/11/20 08:52:37;;;;;;;9.80;1.80;;;;;;;12.93;57.58;99005.97;1680557;83;21139;-67
2021/11/20 08:55:05;;;;;;;4.75;1.42;;;;;;;12.95;57.13;98983.80;1684278;83;21287;-65
2021/11/20 08:57:32;;;;;;;6.85;1.42;;;;;;;12.94;56.38;99003.59;1680439;84;21017;-66
2021/11/20 09:00:19;;;;;;;9.33;1.72;;;;;;;12.95;56.63;98987.81;1656785;86;21176;-66
2021/11/20 09:02:58;;;;;;;8.88;1.30;;;;;;;12.92;55.73;98966.91;1664332;83;21522;-66
2021/11/20 09:05:58;;;;;;;7.33;1.55;;;;;;;12.90;56.26;99005.63;1687534;83;21024;-66
2021/11/20 09:08:33;;;;;;;8.40;1.85;;;;;;;12.91;55.69;99004.05;1666313;83;20953;-65
2021/11/20 09:11:22;;;;;;;5.00;1.17;;;;;;;12.87;54.81;98999.42;1684235;83;21113;-65
2021/11/20 09:14:17;;;;;;;5.03;1.05;;;;;;;12.80;54.72;98990.98;1688379;83;21111;-67
2021/11/20 09:16:48;;;;;;;;;;;;;;;12.73;54.92;99001.52;1694110;84;21073;-65
2021/11/20 09:19:15;;;;;;;3.65;0.90;;;;;;;12.68;54.38;98996.89;1675601;84;20136;-66
2021/11/20 09:21:42;;;;;;;5.92;1.22;;;;;;;12.65;54.77;98998.16;1675927;83;21108;-66
2021/11/20 09:24:32;;;;;;;4.55;1.10;;;;;;;12.69;54.63;98999.04;1679238;83;21009;-66
2021/11/20 09:27:03;;;;;;;4.90;2.00;;;;;;;12.72;54.15;99009.27;1681177;83;21628;-67
2021/11/20 09:29:30;;;;;;;3.80;1.02;;;;;;;12.76;54.18;99011.77;1679142;83;21453;-64
2021/11/20 09:31:57;;;;;;;3.58;0.70;;;;;;;12.79;54.37;99019.30;1684657;83;21564;-65
2021/11/20 09:34:25;;;;;;;5.95;1.10;;;;;;;12.75;53.16;99000.77;1682296;83;21099;-69
2021/11/20 09:36:57;;;;;;;4.95;1.50;;;;;;;12.72;52.82;99003.92;1682579;83;21022;-67
2021/11/20 09:39:34;;;;;;;5.15;0.50;;;;;;;12.71;52.02;99006.30;1688006;84;21108;-70
2021/11/20 09:42:46;;;;;;;7.47;1.60;;;;;;;12.72;52.09;99023.45;1669130;84;21024;-67
2021/11/20 09:45:20;;;;;;;13.08;1.20;;;;;;;12.76;51.46;98993.05;1682727;83;21075;-68
2021/11/20 09:47:54;;;;;;;5.87;1.35;;;;;;;12.80;50.91;99020.94;1688180;84;21021;-69
2021/11/20 09:50:30;;;;;;;5.17;0.90;;;;;;;12.84;51.26;98996.68;1682293;83;22111;-68
2021/11/20 09:52:59;;;;;;;8.05;1.15;;;;;;;12.85;50.91;99013.83;1682021;84;21165;-67
2021/11/20 09:55:34;;;;;;;8.95;1.15;;;;;;;12.86;50.93;98997.25;1688657;83;21531;-68
2021/11/20 09:58:13;;;;;;;5.97;0.80;;;;;;;12.87;49.78;99012.27;1682650;83;21009;-68
2021/11/20 10:01:25;;;;;;;3.98;0.88;;;;;;;12.85;50.02;98999.12;1685567;84;21060;-68
2021/11/20 10:04:05;;;;;;;9.95;1.47;;;;;;;12.78;49.81;99008.33;1679906;83;21052;-67
2021/11/20 10:06:48;;;;;;;8.40;1.32;;;;;;;12.76;49.98;99011.77;1679612;84;21199;-62
2021/11/20 10:09:29;;;;;;;2.98;0.62;;;;;;;12.78;49.36;99005.12;1676209;83;21140;-63
2021/11/20 10:12:14;;;;;;;7.08;0.95;;;;;;;12.78;49.42;99011.80;1690211;83;21135;-62
2021/11/20 10:14:48;;;;;;;4.80;1.07;;;;;;;12.77;48.24;99019.55;1671943;83;21101;-62
2021/11/20 10:17:33;;;;;;;6.25;0.30;;;;;;;12.73;47.75;98985.48;1695056;84;21044;-64
2021/11/20 10:20:17;;;;;;;2.30;0.20;;;;;;;12.74;47.86;99012.52;1674356;83;21116;-62
2021/11/20 10:23:12;;;;;;;6.05;0.45;;;;;;;12.73;48.35;99021.05;1660990;83;21484;-63
2021/11/20 10:26:07;;;;;;;3.98;1.00;;;;;;;12.73;48.40;99006.34;1655503;84;21125;-60
2021/11/20 10:29:02;;;;;;;5.30;0.80;;;;;;;12.73;47.34;99025.05;1692107;83;21364;-63
2021/11/20 10:31:34;;;;;;;11.80;0.78;;;;;;;12.72;47.18;99003.92;1683794;83;21067;-63
2021/11/20 10:34:26;;;;;;;4.30;1.30;;;;;;;12.65;47.20;99018.20;1693254;84;21022;-65
2021/11/20 10:36:58;;;;;;;8.53;1.07;;;;;;;12.63;47.54;99044.36;1689350;83;21021;-65
2021/11/20 10:39:30;;;;;;;3.98;1.17;;;;;;;12.64;47.33;99058.03;1692773;83;21001;-63
2021/11/20 10:42:20;;;;;;;7.10;0.50;;;;;;;12.64;46.82;99055.36;1676201;84;21079;-64
2021/11/20 10:44:52;;;;;;;7.03;1.00;;;;;;;12.64;47.22;99047.87;1679539;83;21533;-63
2021/11/20 10:47:29;;;;;;;2.95;1.20;;;;;;;12.63;47.13;99028.33;1684384;83;21039;-64
2021/11/20 10:50:07;;;;;;;3.50;0.88;;;;;;;12.64;47.25;99055.89;1685212;84;21124;-63
2021/11/20 10:53:20;;;;;;;3.20;0.60;;;;;;;12.62;46.37;99038.75;1688189;84;22201;-66
2021/11/20 10:56:25;;;;;;;4.58;0.93;;;;;;;12.60;47.09;99060.89;1682427;83;21013;-64
2021/11/20 10:59:21;;;;;;;5.30;0.93;;;;;;;12.52;47.36;99047.85;1683429;84;21100;-66
2021/11/20 11:02:16;;;;;;;5.55;1.35;;;;;;;12.45;46.87;99065.85;1695317;83;20978;-63
2021/11/20 11:05:37;;;;;;;3.67;0.60;;;;;;;12.40;46.68;99064.42;1624660;85;21617;-64
2021/11/20 11:08:37;;;;;;;6.53;0.95;;;;;;;12.39;46.33;99062.25;1612528;87;21102;-65
2021/11/20 11:11:20;;;;;;;3.65;0.78;;;;;;;12.36;46.49;99074.75;1624923;85;21043;-64
2021/11/20 11:14:10;;;;;;;4.80;0.70;;;;;;;12.35;46.64;99065.09;1615700;86;21141;-64
2021/11/20 11:16:48;;;;;;;5.85;0.82;;;;;;;12.37;46.30;99064.88;1624325;86;21109;-65
2021/11/20 11:19:57;;;;;;;4.33;0.40;;;;;;;12.38;46.50;99079.88;1634205;85;21113;-63
2021/11/20 11:22:44;;;;;;;4.12;0.40;;;;;;;12.39;45.58;99076.95;1639567;85;21038;-66
2021/11/20 11:25:21;;;;;;;4.22;0.78;;;;;;;12.34;46.00;99078.68;1635853;85;21600;-65
2021/11/20 11:28:14;;;;;;;4.10;1.05;;;;;;;12.36;46.32;99101.48;1628386;85;21055;-66
2021/11/20 11:31:21;;;;;;;8.20;0.85;;;;;;;12.35;45.64;99087.00;1620180;87;21652;-64
2021/11/20 11:33:53;;;;;;;6.87;1.07;;;;;;;12.34;46.09;99101.39;1641940;85;21118;-66
2021/11/20 11:36:46;;;;;;;3.72;0.78;;;;;;;12.31;46.33;99099.20;1643558;85;21055;-66
2021/11/20 11:39:40;;;;;;;6.30;1.27;;;;;;;12.31;46.02;99065.27;1636550;85;21421;-66
2021/11/20 11:42:34;;;;;;;5.22;1.25;;;;;;;12.28;46.18;99105.80;1644941;86;21036;-65
2021/11/20 11:45:07;;;;;;;5.17;1.32;;;;;;;12.23;46.08;99079.78;1620445;87;21151;-63
2021/11/20 11:47:57;;;;;;;7.33;1.10;;;;;;;12.20;45.79;99079.42;1617326;87;20991;-66
2021/11/20 11:50:45;;;;;;;4.70;0.75;;;;;;;12.22;45.84;99093.36;1632817;85;21034;-65
2021/11/20 11:53:29;;;;;;;5.05;0.50;;;;;;;12.22;45.50;99101.37;1630717;85;21103;-65
2021/11/20 11:56:01;;;;;;;2.55;0.68;;;;;;;12.23;45.69;99110.51;1617820;86;21043;-65
2021/11/20 11:58:45;;;;;;;3.22;0.62;;;;;;;12.25;45.63;99115.09;1630960;87;20981;-64
2021/11/20 12:01:19;;;;;;;5.60;1.60;;;;;;;12.27;46.02;99113.01;1628088;87;21033;-66
2021/11/20 12:04:10;;;;;;;6.42;1.10;;;;;;;12.26;46.16;99110.06;1642430;85;21071;-65
2021/11/20 12:06:52;;;;;;;4.42;0.37;;;;;;;12.23;45.80;99098.48;1606564;88;21151;-64
2021/11/20 12:09:29;;;;;;;6.67;1.40;;;;;;;12.16;45.46;99100.97;1605369;87;21007;-65
2021/11/20 12:12:13;;;;;;;5.97;0.90;;;;;;;12.11;45.66;99110.18;1634318;86;21026;-64
2021/11/20 12:14:45;;;;;;;6.22;1.27;;;;;;;12.07;45.86;99115.16;1658569;85;21564;-65